Relevés horaires Semmerzake (Belgique)


Relevés horaires à Semmerzake - Dimanche 14 Avr. 2024
Heure UTC1 Température [°C] Vent [km/h] Hum. [%] Pres.4 [hPa] Visi. [Km] Nébu. [octa] Préc.5 [mm] Cond.
2m. Res. Ros. Dir.2 Vit. Moy. Raf.3
23:00 8.8 8.8 5.2 NNO 1.9 -- 9.3 78 1017.3(-2.4/3h) >70 -- -- --
22:00 9.5 9.5 5.3 NNO 1.9 -- 9.3 75 1018.3(-1.3/3h) >70 -- -- NA
21:00 10.4 10.4 4.8 O 3.7 -- 9.3 68 1019.2(-0.5/3h) 14 -- -- Il y a de la pluie faible et continue à la station au moment de l'observation
20:00 11.3 11.3 3.8 NNO 1.9 -- 7.4 60 1019.8(-0.1/3h) >70 -- -- --
19:00 11.5 11.5 3.8 NNO 1.9 -- 9.3 59 1019.7(-1.1/3h) >70 -- -- --
18:00 12.0 11.9 4.2 NNO 5.6 -- 9.3 59 1019.7(-1.6/3h) >70 -- -- --
17:00 13.4 13.4 6.6 NNO 5.6 -- 9.3 63 1020.1(-1.9/3h) >70 -- -- --
16:00 14.9 14.9 5.9 NO 3.7 -- 7.4 55 1020.7(-1.8/3h) >70 -- -- --
15:00 15.2 15.2 4.8 NNO 1.9 -- 7.4 50 1021.3(-2.1/3h) >70 -- -- --
14:00 15.7 15.7 4.7 NO 3.7 -- 7.4 48 1022(-2.0/3h) >70 -- -- --
13:00 15.1 15.1 5.2 OSO 3.7 -- 7.4 52 1022.7(-1.8/3h) >70 -- -- --
12:00 14.3 14.3 5.6 NNO 1.9 -- 9.3 56 1023.6(-0.8/3h) >70 -- -- --
11:00 14.9 14.9 6.7 SO 3.7 -- 7.4 58 1024(-0.1/3h) >70 -- -- --
10:00 13.4 13.4 6.5 NNO 1.9 -- 7.4 63 1024.4(0.3/3h) >70 -- -- --
09:00 12.8 12.8 5.0 NNO 1.9 -- 3.7 59 1024.5(0.6/3h) >70 -- -- --
08:00 12.0 12.0 6.8 NNO 1.9 -- 3.7 70 1024.2(0.8/3h) >70 -- -- --
07:00 11.2 11.2 9.0 NNO 1.9 -- 3.7 86 1024.2(1.1/3h) 30 -- -- --
06:00 10.3 10.3 9.0 NNO 1.9 -- 7.4 92 1023.7(1.0/3h) 20 -- -- --
05:00 10.1 10.1 8.8 NNO 1.9 -- 5.6 92 1023.3(0.8/3h) 18 -- -- --
04:00 9.6 9.6 8.6 OSO 3.7 -- 5.6 93 1023(0.3/3h) 16 -- -- --
03:00 9.9 9.9 8.6 OSO 3.7 -- 7.4 92 1022.7(0.3/3h) 17 -- -- --
02:00 10.8 10.8 8.7 O 3.7 -- 7.4 87 1022.6(0.5/3h) 27 -- -- --
01:00 10.8 10.8 8.0 OSO 3.7 -- 7.4 83 1022.6(1.2/3h) 40 -- -- --
00:00 11.5 11.5 6.2 OSO 3.7 -- 20.4 70 1022.5(1.1/3h) >70 -- -- --

1 Coordinated Universal Time. Actuellement il est 08:00 locale et 06:00 UTC.

2 Le vent souffle depuis la direction indiquée vers la direction oposée.

3 Les rafales max. sont disponible 40 min après l'heure du relevé.

4 Pour les stations d'altitude (plus de 600m) le géopotentiel du niveau le plus proche de la pression obligatoire est indiqué.

5 Les stations disposant d'un diffuseur peuvent indiquer "trace". Cela signifie que des précipitations ont touchés le sol mais que la quantité est inférieure à 0.1 mm.

Récapitulatif de la journée
Température [°C] Vent [km/h] Ensoleillement4 [h] Precipitations totale5 [mm] Pression [Hpa]
Min1 Max.2 Moy.3 Max. Min Max.
9.5 16.0 0 20.4 0 h 0 min 0 1017.3 1024.5

1 Température minimale relevée entre 18:00 UTC la veille et 18:00 UTC le jour donné.

2 Température maximale relevée entre 06:00 UTC le jour donné et 06:00 UTC le lendemain.

3 Vent moyen de la journée basé sur les relevés horaires.

4 Ensoleillement en heures relevé entre 06:00 UTC la veille et 06:00 UTC le jour donné.

5 Précipitations totales tombées entre 06:00 UTC la jour donné et 06:00 UTC le lendemain.

Graphiques horaires